Time;durP1;ratioP1;P1;durP2;ratioP2;P2;SDS_P1;SDS_P2;PMS_P1;PMS_P2;Temp;Humidity;BMP_temperature;BMP_pressure;BME280_temperature;BME280_humidity;BME280_pressure;Samples;Min_cycle;Max_cycle;Signal;HPM_P1;HPM_P2
2021/06/24 00:00:58;;;;;;;4.83;4.23;;;18.30;99.90;;;;;;5119105;28;20452;-48
2021/06/24 00:03:26;;;;;;;7.60;5.20;;;18.20;99.90;;;;;;5136045;28;20428;-44
2021/06/24 00:05:53;;;;;;;7.83;3.83;;;18.30;99.90;;;;;;5126647;28;20421;-48
2021/06/24 00:08:21;;;;;;;7.50;4.33;;;18.30;99.90;;;;;;5118703;28;20465;-49
2021/06/24 00:10:49;;;;;;;6.30;5.00;;;18.30;99.90;;;;;;5130960;27;20429;-48
2021/06/24 00:13:16;;;;;;;7.57;4.27;;;18.20;99.90;;;;;;5128932;28;20459;-48
2021/06/24 00:15:43;;;;;;;9.30;4.90;;;18.20;99.90;;;;;;5118790;28;20464;-48
2021/06/24 00:18:11;;;;;;;7.90;4.30;;;18.20;99.90;;;;;;5119816;28;20441;-46
2021/06/24 00:20:39;;;;;;;8.37;4.40;;;18.20;99.90;;;;;;5138973;28;20466;-48
2021/06/24 00:23:06;;;;;;;8.27;4.97;;;18.20;99.90;;;;;;5139055;27;20470;-46
2021/06/24 00:25:34;;;;;;;5.10;3.60;;;18.20;99.90;;;;;;5120838;28;20430;-46
2021/06/24 00:28:01;;;;;;;5.50;3.60;;;18.20;99.90;;;;;;5118511;28;20503;-49
2021/06/24 00:30:28;;;;;;;6.50;4.43;;;18.20;99.90;;;;;;5124447;28;20429;-46
2021/06/24 00:32:55;;;;;;;4.60;4.03;;;18.20;99.90;;;;;;5118571;28;20417;-50
2021/06/24 00:35:23;;;;;;;9.53;5.00;;;18.20;99.90;;;;;;5118746;28;20461;-50
2021/06/24 00:37:49;;;;;;;5.40;4.07;;;18.10;99.90;;;;;;5118522;28;20418;-50
2021/06/24 00:40:17;;;;;;;7.20;4.60;;;18.10;99.90;;;;;;5118914;28;20463;-44
2021/06/24 00:42:44;;;;;;;7.57;4.97;;;18.10;99.90;;;;;;5118866;28;20426;-46
2021/06/24 00:45:13;;;;;;;7.00;4.83;;;18.10;99.90;;;;;;5117280;28;20433;-47
2021/06/24 00:47:40;;;;;;;10.80;4.43;;;18.10;99.90;;;;;;5103574;28;20461;-45
2021/06/24 00:50:09;;;;;;;7.90;5.00;;;18.10;99.90;;;;;;5116283;28;20417;-45
2021/06/24 00:52:37;;;;;;;7.67;4.90;;;18.00;99.90;;;;;;5119240;28;20447;-44
2021/06/24 00:55:05;;;;;;;8.77;5.07;;;18.10;99.90;;;;;;5106845;28;20429;-50
2021/06/24 00:57:32;;;;;;;8.27;4.90;;;18.10;99.90;;;;;;5097295;28;20461;-49
2021/06/24 00:59:59;;;;;;;6.77;4.23;;;18.00;99.90;;;;;;5097948;28;20464;-46
2021/06/24 01:02:26;;;;;;;10.80;6.30;;;18.00;99.90;;;;;;5097414;28;20455;-47
2021/06/24 01:04:53;;;;;;;7.60;5.43;;;18.00;99.90;;;;;;5113264;28;20467;-47
2021/06/24 01:07:19;;;;;;;5.27;4.37;;;17.90;99.90;;;;;;5098948;28;20474;-44
2021/06/24 01:09:47;;;;;;;7.07;4.63;;;18.00;99.90;;;;;;5098126;28;20956;-47
2021/06/24 01:12:14;;;;;;;5.23;4.73;;;18.00;99.90;;;;;;5103519;28;20427;-46
2021/06/24 01:14:41;;;;;;;5.43;4.93;;;17.90;99.90;;;;;;5114873;28;20473;-53
2021/06/24 01:17:08;;;;;;;5.40;4.27;;;17.90;99.90;;;;;;5109814;28;20455;-49
2021/06/24 01:19:34;;;;;;;8.80;5.30;;;17.90;99.90;;;;;;5118504;28;20441;-48
2021/06/24 01:22:01;;;;;;;5.60;4.57;;;17.90;99.90;;;;;;5118115;28;20456;-48
2021/06/24 01:24:29;;;;;;;6.40;4.87;;;17.90;99.90;;;;;;5118075;28;20441;-47
2021/06/24 01:27:01;;;;;;;6.67;4.80;;;17.90;99.90;;;;;;5117616;28;20504;-47
2021/06/24 01:29:28;;;;;;;6.87;5.60;;;17.90;99.90;;;;;;5114292;28;20466;-51
2021/06/24 01:31:57;;;;;;;12.20;5.80;;;18.00;99.90;;;;;;5110778;28;20463;-63
2021/06/24 01:34:24;;;;;;;7.63;4.80;;;18.00;99.90;;;;;;5118044;28;20421;-48
2021/06/24 01:36:51;;;;;;;8.23;5.10;;;18.00;99.90;;;;;;5133243;28;20452;-42
2021/06/24 01:39:17;;;;;;;6.60;4.67;;;18.00;99.90;;;;;;5138477;28;20425;-44
2021/06/24 01:41:55;;;;;;;6.70;5.40;;;18.00;99.90;;;;;;5138800;28;20423;-46
2021/06/24 01:44:34;;;;;;;7.97;5.27;;;18.00;99.90;;;;;;5125074;28;20454;-48
2021/06/24 01:47:01;;;;;;;7.70;5.43;;;18.00;99.90;;;;;;5118217;28;20488;-48
2021/06/24 01:49:28;;;;;;;6.10;4.93;;;18.10;99.90;;;;;;5118929;28;20434;-46
2021/06/24 01:52:06;;;;;;;6.23;4.80;;;18.00;99.90;;;;;;5118304;28;20446;-49
2021/06/24 01:54:33;;;;;;;5.50;4.70;;;18.00;99.90;;;;;;5117866;28;20432;-47
2021/06/24 01:57:06;;;;;;;6.73;4.40;;;18.10;99.90;;;;;;5131212;28;20471;-51
2021/06/24 01:59:33;;;;;;;9.00;4.87;;;18.10;99.90;;;;;;5137924;28;20467;-46
2021/06/24 02:02:03;;;;;;;6.50;4.93;;;18.10;99.90;;;;;;5130324;28;20449;-44
2021/06/24 02:04:29;;;;;;;6.23;4.83;;;18.10;99.90;;;;;;5117334;28;20429;-50
2021/06/24 02:06:57;;;;;;;11.23;5.33;;;18.20;99.90;;;;;;5133162;28;20460;-49
2021/06/24 02:09:23;;;;;;;11.20;4.70;;;18.20;99.90;;;;;;5138678;28;20441;-46
2021/06/24 02:11:54;;;;;;;9.57;5.90;;;18.20;99.90;;;;;;5138710;28;20441;-49
2021/06/24 02:14:22;;;;;;;7.93;5.63;;;18.20;99.90;;;;;;5142398;28;20409;-49
2021/06/24 03:33:02;;;;;;;7.73;4.73;;;18.20;99.90;;;;;;5362018;22;20499;-44
2021/06/24 03:35:29;;;;;;;8.90;4.47;;;18.10;99.90;;;;;;5139246;28;20425;-45
2021/06/24 03:37:57;;;;;;;8.20;5.03;;;18.20;99.90;;;;;;5139128;28;20432;-44
2021/06/24 03:40:28;;;;;;;8.77;5.07;;;18.20;99.90;;;;;;5139013;28;20478;-43
2021/06/24 03:42:58;;;;;;;5.93;4.57;;;18.10;99.90;;;;;;5139168;28;20425;-47
2021/06/24 03:45:25;;;;;;;7.83;4.50;;;18.20;99.90;;;;;;5139014;28;20441;-48
2021/06/24 03:47:53;;;;;;;6.63;5.10;;;18.10;99.90;;;;;;5138887;28;20456;-46
2021/06/24 03:50:21;;;;;;;5.03;3.90;;;18.10;99.90;;;;;;5139464;28;20413;-47
2021/06/24 03:52:50;;;;;;;12.60;4.97;;;18.20;99.90;;;;;;5139527;28;20421;-47
2021/06/24 03:55:35;;;;;;;4.60;3.87;;;18.20;99.90;;;;;;5139644;28;20463;-45
2021/06/24 03:58:02;;;;;;;8.33;4.30;;;18.20;99.90;;;;;;5138226;28;20435;-49
2021/06/24 04:00:30;;;;;;;10.30;4.40;;;18.30;99.90;;;;;;5138139;28;20433;-45
2021/06/24 04:03:00;;;;;;;6.73;4.40;;;18.30;99.90;;;;;;5138217;28;20486;-45
2021/06/24 04:05:33;;;;;;;8.53;4.50;;;18.30;99.90;;;;;;5139015;28;20444;-47
2021/06/24 04:08:01;;;;;;;8.13;5.27;;;18.30;99.90;;;;;;5133236;28;20464;-47
2021/06/24 04:10:29;;;;;;;9.60;5.17;;;18.30;99.90;;;;;;5139757;28;20491;-45
2021/06/24 04:12:57;;;;;;;6.97;5.43;;;18.40;99.90;;;;;;5139631;28;20429;-50
2021/06/24 04:15:27;;;;;;;8.40;4.43;;;18.40;99.90;;;;;;5139539;28;20424;-50
2021/06/24 04:17:54;;;;;;;14.43;4.53;;;18.50;99.90;;;;;;5140172;28;20436;-48
2021/06/24 04:20:22;;;;;;;6.00;4.13;;;18.50;99.90;;;;;;5140040;28;20516;-46
2021/06/24 04:22:52;;;;;;;7.27;4.70;;;18.50;99.90;;;;;;5139630;28;20429;-48
2021/06/24 04:25:21;;;;;;;7.60;5.60;;;18.50;99.90;;;;;;5138918;28;20441;-47
2021/06/24 04:27:51;;;;;;;7.60;4.80;;;18.50;99.90;;;;;;5139752;28;20523;-50
2021/06/24 04:30:21;;;;;;;7.30;5.93;;;18.50;99.90;;;;;;5139562;28;20492;-48
2021/06/24 04:32:52;;;;;;;6.53;5.03;;;18.50;99.90;;;;;;5139535;28;20473;-47
2021/06/24 04:35:19;;;;;;;12.33;4.77;;;18.50;99.90;;;;;;5139291;28;20420;-48
2021/06/24 04:37:46;;;;;;;6.93;4.97;;;18.50;99.90;;;;;;5139460;28;20449;-48
2021/06/24 04:40:15;;;;;;;7.90;5.20;;;18.50;99.90;;;;;;5139375;28;20436;-44
2021/06/24 04:42:43;;;;;;;10.10;5.30;;;18.50;99.90;;;;;;5139014;28;20436;-49
2021/06/24 04:45:13;;;;;;;8.00;5.73;;;18.60;99.90;;;;;;5139480;28;20433;-49
2021/06/24 04:47:39;;;;;;;15.20;6.83;;;18.60;99.90;;;;;;5138869;28;20532;-47
2021/06/24 04:50:07;;;;;;;5.37;4.87;;;18.50;99.90;;;;;;5139220;28;20462;-50
2021/06/24 04:52:33;;;;;;;10.53;5.00;;;18.60;99.90;;;;;;5138636;28;20420;-49
2021/06/24 04:55:00;;;;;;;11.00;5.20;;;18.60;99.90;;;;;;5138707;28;20463;-50
2021/06/24 04:57:29;;;;;;;6.97;4.90;;;18.60;99.90;;;;;;5138864;28;20436;-50
2021/06/24 04:59:57;;;;;;;9.90;5.67;;;18.60;99.90;;;;;;5138940;28;20436;-46
2021/06/24 05:02:24;;;;;;;8.43;5.47;;;18.50;99.90;;;;;;5138495;28;20424;-49
2021/06/24 05:04:51;;;;;;;9.77;6.50;;;18.50;99.90;;;;;;5138649;28;20462;-47
2021/06/24 05:07:20;;;;;;;8.33;5.50;;;18.50;99.90;;;;;;5138680;28;20485;-51
2021/06/24 05:09:48;;;;;;;13.77;6.40;;;18.50;99.90;;;;;;5138492;28;20492;-47
2021/06/24 05:12:15;;;;;;;9.30;6.17;;;18.50;99.90;;;;;;5138637;28;20460;-47
2021/06/24 05:14:43;;;;;;;15.07;6.83;;;18.50;99.90;;;;;;5138814;28;20440;-48
2021/06/24 05:17:14;;;;;;;10.37;6.07;;;18.50;99.90;;;;;;5138658;28;20421;-48
2021/06/24 05:19:43;;;;;;;9.20;6.10;;;18.50;99.90;;;;;;5138754;28;20438;-45
2021/06/24 05:22:11;;;;;;;16.13;6.87;;;18.50;99.90;;;;;;5138973;28;20429;-49
2021/06/24 05:24:39;;;;;;;11.30;6.77;;;18.50;99.90;;;;;;5138745;28;20424;-42
2021/06/24 05:27:07;;;;;;;14.10;7.20;;;18.50;99.90;;;;;;5138740;28;20436;-45
2021/06/24 05:29:37;;;;;;;10.67;7.33;;;18.50;99.90;;;;;;5138566;28;20452;-49
2021/06/24 05:32:05;;;;;;;9.87;7.07;;;18.50;99.90;;;;;;5138416;28;20449;-47
2021/06/24 05:34:34;;;;;;;11.77;6.90;;;18.50;99.90;;;;;;5138596;28;20424;-44
2021/06/24 05:37:05;;;;;;;12.73;7.87;;;18.50;99.90;;;;;;5138437;28;20444;-49
2021/06/24 05:39:34;;;;;;;10.90;6.50;;;18.40;99.90;;;;;;5138803;28;20432;-48
2021/06/24 05:42:02;;;;;;;13.20;7.43;;;18.30;99.90;;;;;;5139075;28;20451;-47
2021/06/24 05:44:29;;;;;;;9.43;7.17;;;18.30;99.90;;;;;;5139340;28;20409;-46
2021/06/24 05:47:01;;;;;;;7.33;6.60;;;18.20;99.90;;;;;;5139707;28;20444;-45
2021/06/24 05:49:31;;;;;;;14.23;8.53;;;18.20;99.90;;;;;;5142693;28;20531;-46
2021/06/24 05:51:58;;;;;;;8.97;7.40;;;18.20;99.90;;;;;;5142496;28;20417;-47
2021/06/24 05:54:25;;;;;;;11.07;8.13;;;18.20;99.90;;;;;;5142089;28;20450;-44
2021/06/24 05:56:54;;;;;;;14.53;7.97;;;18.10;99.90;;;;;;5142239;28;20447;-48
2021/06/24 05:59:23;;;;;;;11.90;8.80;;;18.10;99.90;;;;;;5142576;28;20439;-44
2021/06/24 06:01:53;;;;;;;16.03;10.60;;;18.10;99.90;;;;;;5142599;28;20440;-48
2021/06/24 06:04:20;;;;;;;10.67;8.90;;;18.10;99.90;;;;;;5141703;28;20436;-48
2021/06/24 06:06:54;;;;;;;12.23;8.40;;;18.10;99.90;;;;;;5142141;28;20427;-47
2021/06/24 06:09:21;;;;;;;10.70;8.23;;;18.10;99.90;;;;;;5136682;28;20498;-43
2021/06/24 06:11:47;;;;;;;15.13;9.47;;;18.10;99.90;;;;;;5132650;28;20470;-43
2021/06/24 06:14:14;;;;;;;14.93;8.20;;;18.10;99.90;;;;;;5133066;28;20447;-43
2021/06/24 06:16:41;;;;;;;16.27;8.87;;;18.20;99.90;;;;;;5133302;28;20445;-44
2021/06/24 06:19:08;;;;;;;21.87;9.03;;;18.20;99.90;;;;;;5133155;28;20441;-47
2021/06/24 06:21:35;;;;;;;14.77;8.53;;;18.20;99.90;;;;;;5132479;28;20592;-43
2021/06/24 06:24:03;;;;;;;12.33;9.10;;;18.30;99.90;;;;;;5132339;28;20497;-45
2021/06/24 06:26:30;;;;;;;13.03;9.80;;;18.20;99.90;;;;;;5132552;28;20444;-44
2021/06/24 06:29:02;;;;;;;16.23;9.80;;;18.20;99.90;;;;;;5132120;28;20468;-46
2021/06/24 06:31:29;;;;;;;10.30;8.97;;;18.20;99.90;;;;;;5127718;28;20537;-42
2021/06/24 06:33:56;;;;;;;12.50;9.90;;;18.30;99.90;;;;;;5106614;28;20945;-47
2021/06/24 06:36:22;;;;;;;10.30;8.27;;;18.30;99.90;;;;;;5109934;28;20884;-47
2021/06/24 06:38:49;;;;;;;13.87;10.20;;;18.30;99.90;;;;;;5116117;28;20448;-43
2021/06/24 06:41:17;;;;;;;16.43;9.00;;;18.30;99.90;;;;;;5108853;28;20437;-47
2021/06/24 06:43:44;;;;;;;16.77;10.50;;;18.40;99.90;;;;;;5105982;28;20957;-43
2021/06/24 06:46:10;;;;;;;15.80;10.10;;;18.40;99.90;;;;;;5110291;28;20481;-43
2021/06/24 06:48:37;;;;;;;14.73;10.87;;;18.50;99.90;;;;;;5099785;28;20481;-46
2021/06/24 06:51:04;;;;;;;16.00;10.13;;;18.40;99.90;;;;;;5120185;28;20429;-46
2021/06/24 06:53:31;;;;;;;13.20;9.73;;;18.50;99.90;;;;;;5138814;28;20424;-47
2021/06/24 06:55:58;;;;;;;15.77;9.17;;;18.60;99.90;;;;;;5129071;28;20436;-47
2021/06/24 06:58:26;;;;;;;17.37;8.53;;;18.70;99.90;;;;;;5133262;28;20457;-45
2021/06/24 07:00:52;;;;;;;16.90;12.43;;;18.80;99.90;;;;;;5121193;28;20467;-48
2021/06/24 07:03:19;;;;;;;12.10;8.87;;;18.80;99.90;;;;;;5130059;28;20438;-49
2021/06/24 07:05:46;;;;;;;14.77;9.97;;;19.00;99.90;;;;;;5118843;28;20529;-49
2021/06/24 07:08:14;;;;;;;14.77;9.07;;;19.00;99.90;;;;;;5126948;27;20511;-46
2021/06/24 07:10:41;;;;;;;10.03;9.03;;;19.00;99.90;;;;;;5118413;28;20433;-44
2021/06/24 07:13:08;;;;;;;16.70;9.17;;;19.10;99.90;;;;;;5118329;28;20438;-45
2021/06/24 07:15:36;;;;;;;17.83;11.70;;;19.20;99.90;;;;;;5157510;27;20427;-49
2021/06/24 07:18:03;;;;;;;15.27;9.43;;;19.40;99.90;;;;;;5122528;27;20444;-44
2021/06/24 07:20:29;;;;;;;17.17;10.80;;;19.40;99.90;;;;;;5153646;27;20471;-43
2021/06/24 07:22:56;;;;;;;12.87;8.80;;;19.50;99.90;;;;;;5145276;27;20451;-50
2021/06/24 07:25:22;;;;;;;15.00;10.63;;;19.60;99.90;;;;;;5149232;27;20532;-46
2021/06/24 07:27:51;;;;;;;13.33;9.33;;;19.50;99.90;;;;;;5148483;27;20817;-45
2021/06/24 07:30:19;;;;;;;12.57;9.23;;;19.50;99.90;;;;;;5118306;28;20433;-50
2021/06/24 07:32:48;;;;;;;15.60;9.80;;;19.50;99.90;;;;;;5148669;27;20563;-47
2021/06/24 07:35:20;;;;;;;16.47;10.93;;;19.50;99.90;;;;;;5129784;27;20440;-52
2021/06/24 07:37:48;;;;;;;16.07;9.60;;;19.40;99.90;;;;;;5142061;27;20486;-47
2021/06/24 07:40:16;;;;;;;12.63;10.20;;;19.40;99.90;;;;;;5150998;27;20485;-48
2021/06/24 07:42:43;;;;;;;19.10;10.37;;;19.40;99.90;;;;;;5148968;27;20465;-50
2021/06/24 07:45:11;;;;;;;18.47;10.80;;;19.40;99.90;;;;;;5126293;27;20467;-50
2021/06/24 07:47:37;;;;;;;14.83;11.03;;;19.50;99.90;;;;;;5145140;27;20430;-49
2021/06/24 07:50:06;;;;;;;10.67;8.87;;;19.50;99.90;;;;;;5141177;27;20499;-46
2021/06/24 07:52:33;;;;;;;16.17;10.73;;;19.50;99.90;;;;;;5127001;27;20442;-49
2021/06/24 07:55:00;;;;;;;12.97;9.53;;;19.50;99.90;;;;;;5132913;27;20438;-50
2021/06/24 07:57:28;;;;;;;11.80;9.50;;;19.60;99.90;;;;;;5133476;27;20445;-54
2021/06/24 07:59:55;;;;;;;14.70;9.90;;;19.80;99.90;;;;;;5129169;27;20442;-53
2021/06/24 08:02:22;;;;;;;11.50;9.83;;;19.90;99.90;;;;;;5119701;28;20433;-48
2021/06/24 08:04:48;;;;;;;17.40;10.77;;;20.00;99.90;;;;;;5126788;28;20432;-46
2021/06/24 08:07:16;;;;;;;21.00;11.30;;;20.10;99.90;;;;;;5148907;27;20465;-47
2021/06/24 08:09:43;;;;;;;17.93;10.57;;;20.20;99.90;;;;;;5125511;27;20534;-51
2021/06/24 08:12:10;;;;;;;12.83;10.47;;;20.40;99.90;;;;;;5127152;28;20445;-49
2021/06/24 08:14:37;;;;;;;15.50;10.60;;;20.50;99.90;;;;;;5137398;28;20458;-49
2021/06/24 08:17:04;;;;;;;13.23;9.40;;;20.60;99.90;;;;;;5120542;27;20491;-49
2021/06/24 08:19:30;;;;;;;16.40;9.80;;;20.70;99.90;;;;;;5145422;27;20457;-48
2021/06/24 08:21:59;;;;;;;12.93;11.30;;;20.70;99.90;;;;;;5148783;27;20416;-48
2021/06/24 08:24:28;;;;;;;14.50;9.27;;;20.80;99.90;;;;;;5157910;27;20467;-50
2021/06/24 08:26:55;;;;;;;21.80;11.93;;;20.80;99.90;;;;;;5139946;27;20439;-51
2021/06/24 08:29:22;;;;;;;17.87;10.07;;;20.80;99.90;;;;;;5119152;27;20464;-45
2021/06/24 08:31:49;;;;;;;18.50;11.10;;;20.90;99.90;;;;;;5135476;27;20489;-52
2021/06/24 08:34:15;;;;;;;15.33;10.37;;;20.90;99.90;;;;;;5141032;27;20475;-49
2021/06/24 08:36:44;;;;;;;15.57;10.90;;;20.80;99.90;;;;;;5125700;27;20446;-48
2021/06/24 08:39:11;;;;;;;13.57;9.90;;;20.80;99.90;;;;;;5125895;27;20512;-48
2021/06/24 08:41:39;;;;;;;21.50;12.40;;;20.80;99.90;;;;;;5140848;27;20455;-50
2021/06/24 08:44:07;;;;;;;15.00;10.67;;;20.80;99.90;;;;;;5149557;27;20468;-51
2021/06/24 08:46:34;;;;;;;14.07;10.70;;;20.70;99.90;;;;;;5129107;27;20432;-50
2021/06/24 08:49:02;;;;;;;17.10;11.37;;;20.70;99.90;;;;;;5146446;27;20546;-48
2021/06/24 08:51:29;;;;;;;16.23;11.30;;;20.70;99.90;;;;;;5129435;27;20485;-49
2021/06/24 08:53:57;;;;;;;15.23;10.90;;;20.60;99.90;;;;;;5134924;27;21046;-51
2021/06/24 08:56:23;;;;;;;17.53;11.73;;;20.70;99.90;;;;;;5136225;27;20421;-45
2021/06/24 08:58:52;;;;;;;17.50;10.90;;;20.70;99.90;;;;;;5150894;27;20465;-45
2021/06/24 09:01:19;;;;;;;20.33;12.20;;;20.80;99.90;;;;;;5121381;27;20455;-50
2021/06/24 09:03:47;;;;;;;15.03;10.47;;;20.80;99.90;;;;;;5147236;27;20440;-50
2021/06/24 09:06:15;;;;;;;14.47;10.53;;;20.80;99.90;;;;;;5132379;27;20517;-49
2021/06/24 09:08:44;;;;;;;16.43;10.50;;;20.80;99.90;;;;;;5119882;28;20572;-53
2021/06/24 09:11:22;;;;;;;13.33;10.03;;;20.80;99.90;;;;;;5131389;27;20437;-52
2021/06/24 09:14:02;;;;;;;14.00;11.07;;;20.90;99.90;;;;;;5130339;28;20818;-49
2021/06/24 09:16:30;;;;;;;18.00;11.20;;;20.90;99.90;;;;;;5119107;28;20437;-51
2021/06/24 09:19:17;;;;;;;17.03;10.70;;;20.90;99.90;;;;;;5145893;28;20431;-50
2021/06/24 09:21:46;;;;;;;15.60;10.33;;;20.90;99.90;;;;;;5126881;28;20463;-51
2021/06/24 09:24:26;;;;;;;16.33;10.63;;;20.90;99.90;;;;;;5132300;27;20439;-47
2021/06/24 09:26:53;;;;;;;13.47;11.40;;;20.90;99.90;;;;;;5152309;27;20438;-53
2021/06/24 09:29:24;;;;;;;13.80;12.13;;;20.80;99.90;;;;;;5128749;27;20474;-48
2021/06/24 09:31:53;;;;;;;17.07;11.23;;;20.80;99.90;;;;;;5135268;27;20498;-51
2021/06/24 09:34:22;;;;;;;15.00;11.70;;;20.70;99.90;;;;;;5140002;28;20437;-54
2021/06/24 09:36:51;;;;;;;14.50;12.07;;;20.70;99.90;;;;;;5146553;27;20443;-44
2021/06/24 09:39:28;;;;;;;19.37;12.50;;;20.80;99.90;;;;;;5150727;27;20429;-47
2021/06/24 09:42:01;;;;;;;15.27;11.37;;;20.80;99.90;;;;;;5155991;27;20443;-47
2021/06/24 09:44:31;;;;;;;16.13;12.13;;;20.80;99.90;;;;;;5151165;27;20428;-49
2021/06/24 09:46:58;;;;;;;16.87;12.20;;;20.80;99.90;;;;;;5144863;27;20440;-47
2021/06/24 09:49:27;;;;;;;14.93;10.77;;;20.70;99.90;;;;;;5152983;27;20474;-51
2021/06/24 09:51:54;;;;;;;15.33;11.17;;;20.80;99.90;;;;;;5142100;27;20457;-53
2021/06/24 09:54:35;;;;;;;14.53;10.90;;;20.90;99.90;;;;;;5143542;27;20442;-53
2021/06/24 09:57:04;;;;;;;11.67;9.87;;;21.10;99.90;;;;;;5148445;27;20486;-47
2021/06/24 09:59:34;;;;;;;16.83;11.27;;;21.30;99.90;;;;;;5128583;27;20433;-50
2021/06/24 10:02:11;;;;;;;15.80;9.87;;;21.50;99.90;;;;;;5142822;27;20469;-51
2021/06/24 10:04:43;;;;;;;14.23;10.30;;;21.80;99.90;;;;;;5125458;28;20428;-51
2021/06/24 10:07:12;;;;;;;14.83;10.70;;;22.00;99.90;;;;;;5141727;27;20509;-50
2021/06/24 10:09:39;;;;;;;11.37;9.00;;;22.30;99.90;;;;;;5136690;27;20485;-54
2021/06/24 10:12:08;;;;;;;17.40;11.10;;;22.60;99.90;;;;;;5131416;27;20500;-51
2021/06/24 10:14:38;;;;;;;11.83;9.90;;;22.80;99.90;;;;;;5137941;27;20452;-50
2021/06/24 10:17:06;;;;;;;25.90;12.30;;;23.00;99.90;;;;;;5135687;27;20447;-50
2021/06/24 10:19:34;;;;;;;16.80;10.13;;;23.00;99.90;;;;;;5121516;27;20430;-46
2021/06/24 10:22:04;;;;;;;11.40;8.87;;;23.00;99.90;;;;;;5148463;27;20477;-45
2021/06/24 10:24:34;;;;;;;12.13;9.50;;;22.90;99.90;;;;;;5140546;27;20484;-49
2021/06/24 10:27:06;;;;;;;10.30;8.87;;;22.70;99.90;;;;;;5139075;27;20896;-51
2021/06/24 10:29:49;;;;;;;11.40;10.00;;;22.50;99.90;;;;;;5132834;27;20479;-50
2021/06/24 10:32:25;;;;;;;14.50;9.83;;;22.30;99.90;;;;;;5142552;27;20471;-51
2021/06/24 10:34:53;;;;;;;14.70;11.80;;;22.10;99.90;;;;;;5143012;27;20423;-51
2021/06/24 10:37:24;;;;;;;15.17;9.60;;;22.10;99.90;;;;;;5142643;27;20450;-51
2021/06/24 10:39:52;;;;;;;13.03;9.80;;;22.10;99.90;;;;;;5143125;27;20463;-52
2021/06/24 10:42:28;;;;;;;14.77;10.37;;;22.10;99.90;;;;;;5138599;27;20440;-48
2021/06/24 10:45:01;;;;;;;14.40;10.30;;;22.10;99.90;;;;;;5139388;27;20440;-52
2021/06/24 10:47:36;;;;;;;28.83;19.53;;;22.20;99.90;;;;;;5138800;27;20441;-52
2021/06/24 10:50:36;;;;;;;17.00;10.30;;;22.30;99.90;;;;;;5147314;27;20477;-47
2021/06/24 10:53:46;;;;;;;12.23;9.40;;;22.50;99.90;;;;;;5130213;27;20455;-47
2021/06/24 10:56:34;;;;;;;10.40;8.10;;;22.60;99.90;;;;;;5148748;27;20427;-50
2021/06/24 10:59:03;;;;;;;18.40;8.30;;;22.60;99.90;;;;;;5138559;27;20420;-49
2021/06/24 11:01:45;;;;;;;14.07;9.20;;;22.60;99.90;;;;;;5155454;27;20454;-49
2021/06/24 11:04:30;;;;;;;8.30;6.97;;;22.60;99.90;;;;;;5147913;27;20481;-48
2021/06/24 11:06:58;;;;;;;10.83;8.00;;;22.80;99.90;;;;;;5150656;27;20476;-47
2021/06/24 11:09:25;;;;;;;12.03;7.47;;;22.90;99.90;;;;;;5141508;27;20479;-48
2021/06/24 11:11:52;;;;;;;13.80;8.97;;;22.90;99.90;;;;;;5143533;27;20893;-43
2021/06/24 11:15:02;;;;;;;17.27;9.20;;;22.80;99.90;;;;;;5137449;28;20436;-51
2021/06/24 11:17:45;;;;;;;18.27;11.20;;;22.80;99.90;;;;;;5145900;27;20408;-49
2021/06/24 11:20:14;;;;;;;13.33;10.10;;;22.50;99.90;;;;;;5144514;27;20451;-52
2021/06/24 11:22:49;;;;;;;13.13;9.57;;;22.40;99.90;;;;;;5144639;27;20440;-52
2021/06/24 11:25:19;;;;;;;9.40;7.67;;;22.20;99.90;;;;;;5142394;27;20445;-49
2021/06/24 11:27:46;;;;;;;8.67;7.53;;;22.10;99.90;;;;;;5148416;27;20435;-51
2021/06/24 11:30:13;;;;;;;9.37;8.00;;;22.10;99.90;;;;;;5147740;27;20476;-45
2021/06/24 11:32:44;;;;;;;9.87;8.13;;;22.10;99.90;;;;;;5152992;27;20467;-50
2021/06/24 11:35:32;;;;;;;8.77;7.93;;;22.10;99.90;;;;;;5117040;27;20445;-45
2021/06/24 11:38:00;;;;;;;14.73;8.27;;;22.10;99.90;;;;;;5116189;28;20460;-45
2021/06/24 11:40:27;;;;;;;11.30;7.87;;;22.20;99.90;;;;;;5134286;27;20486;-44
2021/06/24 11:42:54;;;;;;;12.37;6.80;;;22.30;99.90;;;;;;5125855;27;20474;-46
2021/06/24 11:45:24;;;;;;;12.50;7.90;;;22.40;99.90;;;;;;5143513;27;20442;-45
2021/06/24 11:47:56;;;;;;;9.70;7.33;;;22.50;99.90;;;;;;5129764;27;20754;-45
2021/06/24 12:04:26;;;;;;;12.20;8.90;;;23.50;99.90;;;;;;5125719;28;20428;-47
2021/06/24 12:06:57;;;;;;;8.47;6.73;;;23.40;99.90;;;;;;5132897;27;20440;-48
2021/06/24 12:09:25;;;;;;;8.17;6.17;;;23.40;99.90;;;;;;5123870;27;20976;-46
2021/06/24 12:11:55;;;;;;;9.87;6.10;;;23.50;99.90;;;;;;5122492;28;20434;-46
2021/06/24 12:14:28;;;;;;;6.30;4.77;;;23.40;99.90;;;;;;5127787;27;20441;-49
2021/06/24 12:17:07;;;;;;;10.30;6.00;;;23.50;99.90;;;;;;5129583;27;20440;-47
2021/06/24 12:19:48;;;;;;;9.40;6.37;;;23.50;99.90;;;;;;5135900;27;20440;-48
2021/06/24 12:22:17;;;;;;;7.40;5.27;;;23.70;99.90;;;;;;5116302;27;20443;-46
2021/06/24 12:24:45;;;;;;;6.50;5.47;;;23.80;99.90;;;;;;5118120;27;20455;-49
2021/06/24 12:27:17;;;;;;;6.00;5.40;;;23.90;99.90;;;;;;5121687;27;20433;-44
2021/06/24 12:29:45;;;;;;;5.30;4.27;;;24.10;99.90;;;;;;5122112;27;20465;-51
2021/06/24 12:32:11;;;;;;;12.30;4.73;;;24.30;99.90;;;;;;5125952;27;20520;-48
2021/06/24 12:34:39;;;;;;;6.20;5.33;;;24.50;99.90;;;;;;5142145;27;20432;-49
2021/06/24 12:37:08;;;;;;;6.63;4.73;;;24.60;99.90;;;;;;5138450;27;20470;-50
2021/06/24 12:39:36;;;;;;;9.03;5.43;;;24.80;99.90;;;;;;5135463;27;20436;-49
2021/06/24 12:42:05;;;;;;;6.37;5.73;;;24.90;99.90;;;;;;5141175;27;20475;-53
2021/06/24 12:44:37;;;;;;;10.53;5.80;;;25.00;99.90;;;;;;5132440;27;20433;-51
2021/06/24 12:47:04;;;;;;;7.30;6.10;;;25.10;99.90;;;;;;5135011;27;20424;-50
2021/06/24 12:49:33;;;;;;;7.37;5.40;;;25.10;99.90;;;;;;5126445;27;20447;-49
2021/06/24 12:52:00;;;;;;;11.00;5.27;;;25.10;99.90;;;;;;5143276;27;20429;-46
2021/06/24 12:54:37;;;;;;;8.80;5.30;;;25.00;99.90;;;;;;5128102;28;20458;-53
2021/06/24 12:57:06;;;;;;;5.13;4.70;;;25.00;99.90;;;;;;5134368;27;20440;-46
2021/06/24 12:59:32;;;;;;;6.00;5.10;;;24.90;99.90;;;;;;5140096;27;20428;-44
2021/06/24 13:02:08;;;;;;;5.70;5.07;;;24.70;99.90;;;;;;5122756;27;20432;-45
2021/06/24 13:04:40;;;;;;;7.00;5.00;;;24.60;99.90;;;;;;5134577;27;20441;-45
2021/06/24 13:07:07;;;;;;;6.03;5.50;;;24.50;99.90;;;;;;5134442;27;20436;-48
2021/06/24 13:09:37;;;;;;;5.13;4.60;;;24.30;99.90;;;;;;5116233;27;20444;-43
2021/06/24 13:12:07;;;;;;;8.23;5.50;;;24.20;99.90;;;;;;5135796;28;20429;-49
2021/06/24 13:14:37;;;;;;;7.90;4.67;;;24.00;99.90;;;;;;5136926;27;20464;-47
2021/06/24 13:17:09;;;;;;;8.40;4.50;;;23.80;99.90;;;;;;5137570;27;20456;-45
2021/06/24 13:19:38;;;;;;;10.13;5.23;;;23.70;99.90;;;;;;5130053;28;20452;-50
2021/06/24 13:22:12;;;;;;;12.60;4.93;;;23.60;99.90;;;;;;5123183;28;20442;-42
2021/06/24 13:24:41;;;;;;;5.10;4.57;;;23.60;99.90;;;;;;5124191;28;20433;-45
2021/06/24 13:27:12;;;;;;;5.70;4.80;;;23.60;99.90;;;;;;5133822;28;20793;-46
2021/06/24 13:29:41;;;;;;;6.20;4.90;;;23.60;99.90;;;;;;5135655;28;20459;-47
2021/06/24 13:32:09;;;;;;;12.57;5.50;;;23.50;99.90;;;;;;5143217;28;20468;-46
2021/06/24 13:34:39;;;;;;;6.97;5.40;;;23.30;99.90;;;;;;5136306;28;20428;-43
2021/06/24 13:37:14;;;;;;;7.10;4.60;;;23.20;99.90;;;;;;5143388;28;20459;-50
2021/06/24 13:39:41;;;;;;;5.87;4.40;;;23.10;99.90;;;;;;5142191;27;20458;-51
2021/06/24 13:42:07;;;;;;;5.47;4.53;;;23.10;99.90;;;;;;5138058;28;20424;-47
2021/06/24 13:44:36;;;;;;;5.83;4.80;;;23.10;99.90;;;;;;5139843;28;20470;-49
2021/06/24 13:47:03;;;;;;;6.70;5.17;;;23.00;99.90;;;;;;5141653;28;20466;-46
2021/06/24 13:49:29;;;;;;;5.00;4.60;;;23.00;99.90;;;;;;5145664;28;20450;-44
2021/06/24 13:51:58;;;;;;;7.83;5.97;;;23.00;99.90;;;;;;5142134;28;20502;-45
2021/06/24 13:54:26;;;;;;;6.20;5.60;;;23.00;99.90;;;;;;5153596;28;20492;-45
2021/06/24 13:56:54;;;;;;;5.90;5.23;;;22.90;99.90;;;;;;5139049;28;20470;-43
2021/06/24 13:59:22;;;;;;;8.87;5.10;;;22.90;99.90;;;;;;5145415;28;20436;-46
2021/06/24 14:01:50;;;;;;;8.40;5.00;;;22.90;99.90;;;;;;5145452;28;20463;-53
2021/06/24 14:04:17;;;;;;;7.70;5.50;;;23.00;99.90;;;;;;5149418;28;20455;-46
2021/06/24 14:06:46;;;;;;;6.20;5.23;;;23.00;99.90;;;;;;5152369;28;20447;-49
2021/06/24 14:09:14;;;;;;;7.00;5.80;;;23.00;99.90;;;;;;5141287;27;20459;-45
2021/06/24 14:11:43;;;;;;;6.17;4.37;;;23.00;99.90;;;;;;5145850;27;20513;-47
2021/06/24 14:14:10;;;;;;;7.10;5.27;;;23.00;99.90;;;;;;5139630;27;20428;-48
2021/06/24 14:16:37;;;;;;;9.70;5.23;;;23.00;99.90;;;;;;5147497;27;20808;-45
2021/06/24 14:19:16;;;;;;;7.37;5.20;;;23.10;99.90;;;;;;5150238;27;20420;-49